Time;durP1;ratioP1;P1;durP2;ratioP2;P2;SDS_P1;SDS_P2;PMS_P1;PMS_P2;Temp;Humidity;BMP_temperature;BMP_pressure;BME280_temperature;BME280_humidity;BME280_pressure;Samples;Min_cycle;Max_cycle;Signal;HPM_P1;HPM_P2
2022/04/18 00:01:52;;;;;;;29.90;17.08;;;;;;;30.03;63.86;100826.75;5038788;28;65216;-34
2022/04/18 00:04:22;;;;;;;24.42;16.55;;;;;;;30.16;63.96;100830.41;5039081;28;69887;-34
2022/04/18 00:06:53;;;;;;;25.20;15.82;;;;;;;30.34;63.24;100859.47;5038058;28;66299;-34
2022/04/18 00:09:24;;;;;;;16.88;15.07;;;;;;;30.41;62.74;100854.84;5031656;28;70202;-36
2022/04/18 00:11:56;;;;;;;26.30;15.30;;;;;;;30.44;62.46;100852.53;5034001;28;67016;-38
2022/04/18 00:14:26;;;;;;;23.20;16.05;;;;;;;30.51;62.55;100860.63;5034772;28;69134;-38
2022/04/18 00:16:58;;;;;;;22.48;16.85;;;;;;;30.60;62.54;100870.13;5033056;28;65433;-37
2022/04/18 00:19:29;;;;;;;;;;;;;;;30.25;65.75;100870.53;5033918;28;69480;-37
2022/04/18 00:22:00;;;;;;;23.38;15.38;;;;;;;30.61;62.82;100871.78;5034621;28;66598;-37
2022/04/18 00:24:31;;;;;;;33.17;15.55;;;;;;;30.57;62.40;100853.50;5031935;28;70210;-38
2022/04/18 00:27:02;;;;;;;32.33;16.77;;;;;;;30.72;62.36;100871.06;5033989;28;66461;-38
2022/04/18 00:29:33;;;;;;;21.35;16.02;;;;;;;30.80;61.94;100877.31;5032980;28;69939;-38
2022/04/18 00:32:04;;;;;;;20.55;15.27;;;;;;;30.72;61.91;100856.72;5032111;28;65979;-38
2022/04/18 00:34:35;;;;;;;23.17;15.68;;;;;;;30.84;62.53;100876.66;5032555;28;69434;-36
2022/04/18 00:37:05;;;;;;;17.25;12.82;;;;;;;30.89;62.48;100884.13;5033766;28;66059;-38
2022/04/18 00:39:36;;;;;;;17.58;13.93;;;;;;;30.92;62.08;100883.66;5034839;28;69687;-34
2022/04/18 00:42:07;;;;;;;15.38;13.73;;;;;;;31.00;62.19;100896.94;5038310;28;65904;-35
2022/04/18 00:44:37;;;;;;;17.27;14.23;;;;;;;30.89;62.13;100873.28;5038961;28;70582;-35
2022/04/18 00:47:08;;;;;;;15.25;13.75;;;;;;;31.02;62.35;100888.59;5037984;28;66249;-34
2022/04/18 00:49:39;;;;;;;18.63;14.27;;;;;;;31.09;61.89;100911.91;5037094;28;71685;-35
2022/04/18 00:52:10;;;;;;;15.05;13.60;;;;;;;31.11;61.90;100909.78;5037510;28;65307;-35
2022/04/18 00:54:43;;;;;;;15.52;13.68;;;;;;;30.68;61.57;100850.91;5035766;28;70464;-35
2022/04/18 00:57:13;;;;;;;16.95;12.75;;;;;;;31.15;61.66;100932.69;5038644;28;65979;-35
2022/04/18 00:59:45;;;;;;;14.32;12.82;;;;;;;31.04;61.68;100911.72;5027410;28;71747;-34
2022/04/18 01:02:17;;;;;;;17.75;12.45;;;;;;;31.20;60.91;100953.69;5022624;28;66251;-34
2022/04/18 01:04:49;;;;;;;14.45;13.15;;;;;;;31.19;61.14;100948.50;5018145;28;69768;-34
2022/04/18 01:07:21;;;;;;;17.52;12.55;;;;;;;31.22;61.13;100948.88;5033682;28;66132;-34
2022/04/18 01:09:52;;;;;;;19.48;13.02;;;;;;;31.25;60.95;100953.84;5036011;28;69600;-35
2022/04/18 01:12:22;;;;;;;14.40;12.95;;;;;;;31.27;60.58;100959.88;5033031;28;65426;-34
2022/04/18 01:15:22;;;;;;;15.75;12.05;;;;;;;31.30;59.94;100967.56;5024518;28;70662;-35
2022/04/18 01:18:11;;;;;;;13.70;12.15;;;;;;;31.33;60.46;100966.31;5034863;28;66182;-34
2022/04/18 01:21:19;;;;;;;13.57;12.27;;;;;;;31.37;60.02;100972.94;5017844;28;70130;-34
2022/04/18 01:28:58;;;;;;;13.38;11.98;;;;;;;31.36;60.11;100965.88;5035837;28;66207;-35
2022/04/18 01:30:05;;;;;;;14.32;11.52;;;;;;;31.42;59.78;100959.56;5037817;28;66730;-35
2022/04/18 01:32:36;;;;;;;13.23;11.90;;;;;;;31.43;59.90;100963.97;5037912;28;70618;-35
2022/04/18 01:35:07;;;;;;;12.90;11.57;;;;;;;31.46;59.42;100959.97;5037246;28;66322;-34
2022/04/18 01:37:38;;;;;;;13.95;12.38;;;;;;;31.43;59.39;100961.25;5036648;28;69763;-34
2022/04/18 01:40:12;;;;;;;11.85;10.73;;;;;;;31.52;59.39;100968.03;5032090;28;66544;-35
2022/04/18 01:42:43;;;;;;;11.38;10.23;;;;;;;31.54;58.71;100971.38;5026150;28;70181;-35
2022/04/18 01:45:16;;;;;;;13.77;11.48;;;;;;;31.34;58.96;100935.41;5035139;28;66720;-35
2022/04/18 01:47:54;;;;;;;11.75;10.73;;;;;;;31.60;58.46;100975.06;5034954;28;69689;-34
2022/04/18 01:50:27;;;;;;;11.88;10.68;;;;;;;31.58;58.21;100964.44;5036094;28;66279;-35
2022/04/18 01:52:58;;;;;;;12.23;11.32;;;;;;;31.60;58.06;100973.19;5037938;28;69722;-35
2022/04/18 01:55:29;;;;;;;11.98;10.90;;;;;;;31.64;58.28;100973.56;5035042;28;65623;-34
2022/04/18 01:58:00;;;;;;;11.43;10.52;;;;;;;31.53;58.24;100956.13;5009337;28;70196;-35
2022/04/18 02:00:33;;;;;;;12.07;10.88;;;;;;;31.68;58.23;100963.06;5029726;28;66488;-34
2022/04/18 02:03:04;;;;;;;11.32;10.25;;;;;;;31.69;57.90;100975.59;5028057;28;69234;-34
2022/04/18 02:05:35;;;;;;;11.60;10.60;;;;;;;31.74;57.63;100978.47;5020181;28;66465;-35
2022/04/18 02:08:06;;;;;;;11.70;10.57;;;;;;;31.76;57.78;100984.50;5036378;28;69782;-34
2022/04/18 02:10:38;;;;;;;11.18;10.27;;;;;;;31.75;57.79;100978.25;5032714;28;66545;-35
2022/04/18 02:13:12;;;;;;;11.00;10.00;;;;;;;31.84;57.20;100984.19;5035804;28;70044;-35
2022/04/18 02:15:42;;;;;;;11.85;10.40;;;;;;;31.85;57.54;100985.88;5035741;28;65227;-35
2022/04/18 02:18:13;;;;;;;10.77;9.85;;;;;;;31.89;57.17;100987.06;5019326;28;69727;-36
2022/04/18 02:20:44;;;;;;;11.45;10.45;;;;;;;31.80;57.23;100961.31;5037838;28;66256;-35
2022/04/18 02:23:15;;;;;;;10.27;9.57;;;;;;;31.91;56.99;100973.28;5038600;28;70123;-35
2022/04/18 02:25:46;;;;;;;13.70;9.95;;;;;;;31.95;56.80;100991.63;5007251;28;66253;-34
2022/04/18 02:28:18;;;;;;;11.68;10.73;;;;;;;31.97;57.04;100989.53;5038501;28;69500;-35
2022/04/18 02:30:53;;;;;;;10.88;10.00;;;;;;;32.01;57.01;100993.47;5039439;28;66420;-34
2022/04/18 02:33:24;;;;;;;10.65;9.90;;;;;;;31.97;56.85;100984.09;5037291;28;69783;-34
2022/04/18 02:35:56;;;;;;;10.05;9.32;;;;;;;32.03;56.85;100977.75;5040178;28;65283;-34
2022/04/18 02:38:28;;;;;;;11.48;10.40;;;;;;;32.10;56.71;100993.16;5039796;28;69302;-34
2022/04/18 02:40:58;;;;;;;10.70;9.68;;;;;;;32.11;56.65;100989.38;5040305;28;66277;-35
2022/04/18 02:43:30;;;;;;;10.63;9.83;;;;;;;32.16;56.26;100981.41;5033527;28;70954;-35
2022/04/18 02:46:07;;;;;;;9.98;9.27;;;;;;;32.17;56.10;100977.63;5038656;28;65684;-35
2022/04/18 02:48:45;;;;;;;10.07;9.40;;;;;;;32.23;56.16;100982.13;5038749;28;70008;-35
2022/04/18 02:51:19;;;;;;;12.05;9.98;;;;;;;32.25;56.15;100980.03;5039669;28;66099;-35
2022/04/18 02:53:50;;;;;;;10.10;9.38;;;;;;;32.30;56.09;100965.78;5039741;28;69634;-35
2022/04/18 02:56:21;;;;;;;10.03;9.10;;;;;;;32.11;55.81;100940.53;5039794;28;65668;-34
2022/04/18 02:58:52;;;;;;;10.07;9.17;;;;;;;32.34;55.73;100970.50;5039447;28;69859;-35
2022/04/18 03:01:23;;;;;;;11.18;10.27;;;;;;;32.38;55.85;100971.72;5040759;28;66528;-34
2022/04/18 03:03:56;;;;;;;10.07;9.27;;;;;;;32.16;55.52;100929.84;5037549;28;70026;-35
2022/04/18 03:06:27;;;;;;;9.65;9.05;;;;;;;32.44;55.55;100969.97;5037765;28;66815;-34
2022/04/18 03:08:57;;;;;;;9.65;8.85;;;;;;;32.47;55.41;100966.84;5049728;28;70041;-34
2022/04/18 03:11:28;;;;;;;9.77;8.82;;;;;;;32.46;55.31;100959.75;5021960;28;66191;-35
2022/04/18 03:13:59;;;;;;;10.18;9.25;;;;;;;32.53;55.27;100970.53;5039644;28;70018;-34
2022/04/18 03:16:43;;;;;;;10.07;9.48;;;;;;;32.49;55.17;100965.53;5037049;28;66677;-35
2022/04/18 03:19:15;;;;;;;10.18;9.38;;;;;;;32.57;55.21;100966.28;5025408;28;69926;-37
2022/04/18 03:21:54;;;;;;;10.68;9.85;;;;;;;32.59;55.08;100969.59;5022431;28;65234;-35
2022/04/18 03:24:25;;;;;;;10.18;9.15;;;;;;;32.62;54.99;100971.84;5033141;28;69598;-34
2022/04/18 03:27:04;;;;;;;10.00;9.13;;;;;;;32.24;54.84;100902.38;5025305;28;65622;-34
2022/04/18 03:29:38;;;;;;;9.27;8.63;;;;;;;32.68;54.70;100973.63;5036014;28;69227;-35
2022/04/18 03:32:21;;;;;;;10.52;9.70;;;;;;;32.59;54.87;100951.41;5041618;28;66232;-35
2022/04/18 03:34:52;;;;;;;9.63;8.73;;;;;;;32.45;54.76;100926.28;5022038;28;69326;-34
2022/04/18 03:40:12;;;;;;;9.27;8.52;;;;;;;32.72;54.86;100959.38;5026487;28;69701;-34
2022/04/18 03:42:43;;;;;;;11.13;9.60;;;;;;;32.73;54.58;100957.47;5031434;28;66306;-34
2022/04/18 03:45:17;;;;;;;10.38;9.43;;;;;;;32.76;54.60;100959.72;5039485;28;70083;-34
2022/04/18 03:47:48;;;;;;;10.55;9.75;;;;;;;32.67;54.40;100937.50;5039417;28;66349;-34
2022/04/18 03:50:19;;;;;;;10.73;9.93;;;;;;;32.78;54.42;100949.47;5040421;28;69527;-38
2022/04/18 03:52:50;;;;;;;10.50;9.70;;;;;;;32.73;54.80;100938.47;5024949;28;65537;-35
2022/04/18 03:55:36;;;;;;;10.25;9.30;;;;;;;32.85;54.41;100950.22;5036840;28;70813;-34
2022/04/18 03:58:15;;;;;;;10.07;9.38;;;;;;;32.86;54.45;100938.28;5020420;28;66564;-35
2022/04/18 04:00:46;;;;;;;13.68;10.20;;;;;;;32.89;54.41;100939.69;5022658;28;70258;-34
2022/04/18 04:03:17;;;;;;;22.90;11.50;;;;;;;32.93;54.11;100939.00;5034199;28;65612;-34
2022/04/18 04:05:56;;;;;;;22.65;10.80;;;;;;;32.93;54.07;100932.72;5037361;28;70874;-35
2022/04/18 04:08:29;;;;;;;22.65;10.85;;;;;;;32.96;54.23;100920.56;5035554;28;66191;-35
2022/04/18 04:11:03;;;;;;;22.02;10.43;;;;;;;32.44;54.19;100832.34;5030091;28;69660;-34
2022/04/18 04:13:37;;;;;;;23.40;12.18;;;;;;;32.92;53.97;100899.28;5021205;28;65997;-34
2022/04/18 04:16:13;;;;;;;30.55;11.13;;;;;;;32.97;54.02;100903.22;5022787;28;70059;-35
2022/04/18 04:18:44;;;;;;;;;;;;;;;32.73;54.46;100916.72;5022421;28;65377;-34
2022/04/18 04:21:16;;;;;;;27.35;11.38;;;;;;;32.96;54.02;100894.25;5027744;28;69279;-35
2022/04/18 04:23:46;;;;;;;41.05;12.15;;;;;;;33.03;53.78;100902.31;5041367;28;65828;-35
2022/04/18 04:26:30;;;;;;;30.52;11.82;;;;;;;33.14;53.38;100904.19;5040027;28;70175;-34
2022/04/18 04:29:02;;;;;;;16.23;10.60;;;;;;;33.14;53.78;100898.75;5032908;28;66811;-34
2022/04/18 04:31:45;;;;;;;34.70;11.35;;;;;;;32.83;53.64;100834.69;5039122;28;71021;-34
2022/04/18 04:34:16;;;;;;;29.65;11.35;;;;;;;33.22;53.87;100890.25;5020670;28;66475;-36
2022/04/18 04:37:02;;;;;;;34.95;11.25;;;;;;;33.20;53.65;100883.41;5036983;28;70417;-34
2022/04/18 04:39:33;;;;;;;28.40;11.40;;;;;;;33.28;53.46;100892.03;5026969;28;67250;-35
2022/04/18 04:42:05;;;;;;;24.67;10.88;;;;;;;33.27;53.48;100882.22;5039968;28;70528;-35
2022/04/18 04:44:36;;;;;;;29.03;11.13;;;;;;;33.31;53.46;100880.69;5039332;28;66433;-34
2022/04/18 04:47:11;;;;;;;19.88;10.60;;;;;;;33.32;53.36;100866.03;5039994;28;69801;-35
2022/04/18 04:49:42;;;;;;;25.15;11.10;;;;;;;33.36;53.30;100867.19;5020160;28;66128;-34
2022/04/18 04:52:23;;;;;;;21.17;11.45;;;;;;;33.43;52.92;100866.25;5022064;28;69945;-35
2022/04/18 04:54:55;;;;;;;20.77;10.82;;;;;;;33.43;53.34;100861.63;5040059;28;66441;-35
2022/04/18 04:57:38;;;;;;;23.23;11.18;;;;;;;33.40;52.84;100847.69;5039364;28;70642;-35
2022/04/18 05:00:24;;;;;;;17.88;11.48;;;;;;;33.48;53.18;100853.59;5019050;28;66491;-35
2022/04/18 05:03:06;;;;;;;23.58;11.13;;;;;;;33.51;52.93;100847.66;5039026;28;69997;-35
2022/04/18 05:05:39;;;;;;;19.50;10.45;;;;;;;33.48;53.17;100839.16;5009633;28;65759;-34
2022/04/18 05:08:25;;;;;;;31.20;12.02;;;;;;;33.44;52.85;100824.41;5022807;28;68069;-34
2022/04/18 05:10:59;;;;;;;;;;;;;;;33.28;53.54;100843.09;5040057;28;66250;-36
2022/04/18 05:13:50;;;;;;;45.15;13.60;;;;;;;33.57;52.98;100830.44;5026500;28;70437;-35
2022/04/18 05:16:29;;;;;;;52.22;12.07;;;;;;;33.51;52.90;100809.59;5037860;28;66525;-35
2022/04/18 05:19:00;;;;;;;52.47;12.57;;;;;;;33.63;52.87;100812.34;5031909;28;70315;-34
2022/04/18 05:21:31;;;;;;;;;;;;;;;33.37;53.20;100824.53;5024220;28;66947;-35
2022/04/18 05:24:10;;;;;;;36.63;12.45;;;;;;;33.66;52.89;100822.72;5019276;28;69452;-35
2022/04/18 05:26:41;;;;;;;29.97;12.20;;;;;;;33.70;52.73;100817.63;5032764;28;66357;-36
2022/04/18 05:29:13;;;;;;;27.60;12.27;;;;;;;33.71;52.52;100809.25;5035841;28;70166;-34
2022/04/18 05:31:45;;;;;;;36.85;12.05;;;;;;;33.55;52.44;100785.50;5017770;28;66667;-36
2022/04/18 05:34:17;;;;;;;34.53;11.85;;;;;;;33.74;52.71;100797.88;5033927;28;69700;-34
2022/04/18 05:36:53;;;;;;;30.83;12.18;;;;;;;33.63;52.64;100779.69;5027898;28;66177;-34
2022/04/18 05:39:46;;;;;;;25.85;11.73;;;;;;;33.76;52.57;100790.28;5025677;28;69678;-35
2022/04/18 05:42:23;;;;;;;20.98;12.05;;;;;;;33.78;52.58;100782.69;5045489;28;66158;-34
2022/04/18 05:44:58;;;;;;;27.88;11.23;;;;;;;33.81;52.36;100775.94;5036947;28;69734;-35
2022/04/18 05:47:29;;;;;;;22.73;12.07;;;;;;;33.83;52.47;100773.81;5019639;28;65286;-35
2022/04/18 05:50:04;;;;;;;25.67;11.93;;;;;;;33.87;51.98;100768.72;5032285;28;69697;-35
2022/04/18 05:52:40;;;;;;;26.67;11.45;;;;;;;33.86;52.32;100764.34;5019238;28;65619;-35
2022/04/18 05:55:35;;;;;;;20.15;11.40;;;;;;;33.86;52.53;100764.34;5031661;28;69877;-34
2022/04/18 05:58:18;;;;;;;26.98;10.82;;;;;;;33.89;52.36;100755.69;5037407;28;65618;-34
2022/04/18 06:00:49;;;;;;;20.00;10.27;;;;;;;33.92;52.48;100749.75;5011646;28;70472;-34
2022/04/18 06:03:20;;;;;;;16.60;10.63;;;;;;;33.93;52.28;100746.78;5036922;28;66551;-34
2022/04/18 06:05:51;;;;;;;15.43;10.20;;;;;;;33.94;52.30;100736.75;5045479;28;69741;-35
2022/04/18 06:08:23;;;;;;;13.65;10.02;;;;;;;33.96;52.11;100740.03;5038220;28;65318;-35
2022/04/18 06:11:01;;;;;;;20.45;10.07;;;;;;;33.98;52.04;100735.19;5037887;28;69600;-34
2022/04/18 06:13:52;;;;;;;24.98;11.02;;;;;;;34.00;52.31;100728.41;5033183;28;66691;-36
2022/04/18 06:16:23;;;;;;;;;;;;;;;33.71;52.55;100733.06;5028001;28;70215;-35
2022/04/18 06:18:54;;;;;;;19.08;10.18;;;;;;;33.99;52.11;100721.34;5039600;28;65616;-36
2022/04/18 06:21:25;;;;;;;14.77;9.23;;;;;;;34.01;51.83;100718.34;5022215;28;70075;-35
2022/04/18 06:23:56;;;;;;;14.30;9.87;;;;;;;34.01;52.08;100715.63;5037450;28;67087;-33
2022/04/18 06:26:40;;;;;;;15.98;9.88;;;;;;;34.01;51.71;100696.56;5030658;28;69238;-36
2022/04/18 06:29:11;;;;;;;17.33;10.63;;;;;;;33.86;52.12;100669.13;5031664;28;65584;-34
2022/04/18 06:31:49;;;;;;;18.67;10.00;;;;;;;34.07;52.24;100692.91;5032397;28;70010;-35
2022/04/18 06:34:22;;;;;;;14.57;10.77;;;;;;;34.08;51.99;100675.50;5031774;28;65499;-35
2022/04/18 06:36:54;;;;;;;10.60;9.35;;;;;;;34.11;51.61;100677.75;5034906;28;70298;-35
2022/04/18 06:39:38;;;;;;;16.23;10.10;;;;;;;34.13;52.06;100675.59;5053511;28;65543;-35
2022/04/18 06:42:14;;;;;;;16.20;9.90;;;;;;;34.15;52.12;100661.72;5020072;28;69433;-35
2022/04/18 06:44:49;;;;;;;14.73;10.60;;;;;;;34.03;51.30;100638.09;5032280;28;66075;-36
2022/04/18 06:47:20;;;;;;;15.93;10.13;;;;;;;34.07;51.71;100643.09;5037205;28;69364;-35
2022/04/18 06:50:12;;;;;;;14.98;10.45;;;;;;;33.72;51.70;100576.13;5036833;28;66210;-35
2022/04/18 06:53:01;;;;;;;18.02;10.43;;;;;;;34.11;51.64;100639.63;5039171;28;69415;-34
2022/04/18 06:59:09;;;;;;;14.98;11.00;;;;;;;34.28;51.81;100655.13;5016002;28;69336;-34
2022/04/18 07:01:41;;;;;;;11.55;9.73;;;;;;;34.26;51.94;100642.56;5033832;28;66133;-34
2022/04/18 07:04:13;;;;;;;21.17;10.40;;;;;;;34.20;51.85;100610.09;5020609;28;69359;-34
2022/04/18 07:06:44;;;;;;;11.50;10.23;;;;;;;34.31;51.59;100621.97;5033895;28;66246;-34
2022/04/18 07:09:15;;;;;;;17.45;10.57;;;;;;;34.35;51.51;100623.94;5038888;28;69275;-35
2022/04/18 07:11:55;;;;;;;10.90;9.80;;;;;;;34.38;51.53;100617.13;5021565;28;66274;-35
2022/04/18 07:14:27;;;;;;;18.73;11.00;;;;;;;34.41;51.50;100622.13;5004983;28;70109;-34
2022/04/18 07:17:00;;;;;;;11.98;10.30;;;;;;;34.43;51.55;100622.66;5038639;28;65851;-35
2022/04/18 07:19:32;;;;;;;11.70;10.18;;;;;;;34.43;51.40;100622.66;5038310;28;69774;-34
2022/04/18 07:22:11;;;;;;;13.48;9.38;;;;;;;34.45;51.40;100625.97;5040462;28;65506;-35
2022/04/18 07:24:42;;;;;;;12.03;10.07;;;;;;;34.43;51.26;100617.22;5041611;28;70123;-34
2022/04/18 07:27:14;;;;;;;15.32;10.18;;;;;;;34.49;51.49;100616.22;5019248;28;65828;-34
2022/04/18 07:29:55;;;;;;;11.88;10.57;;;;;;;34.42;51.18;100596.53;5034780;28;69680;-34
2022/04/18 07:32:26;;;;;;;16.23;10.38;;;;;;;34.52;51.16;100595.81;5039116;28;65746;-35
2022/04/18 07:35:02;;;;;;;12.52;10.45;;;;;;;34.52;51.30;100596.66;5040041;28;69745;-35
2022/04/18 07:40:35;;;;;;;12.73;10.07;;;;;;;34.56;51.32;100581.47;5029403;28;70328;-35
2022/04/18 07:43:12;;;;;;;10.60;9.70;;;;;;;34.61;51.30;100567.94;5020689;28;66691;-35
2022/04/18 07:45:43;;;;;;;11.00;9.80;;;;;;;34.65;50.85;100563.63;5037720;28;71825;-35
2022/04/18 07:48:15;;;;;;;13.68;9.82;;;;;;;34.70;50.77;100565.59;5031461;28;65308;-34
2022/04/18 07:53:38;;;;;;;13.30;9.38;;;;;;;34.73;51.01;100564.25;5040889;28;66191;-34
2022/04/18 07:56:09;;;;;;;11.32;9.05;;;;;;;34.76;50.93;100561.03;5030846;28;70372;-34
2022/04/18 07:58:40;;;;;;;10.77;9.68;;;;;;;34.79;51.00;100568.69;5025848;28;66030;-34
2022/04/18 08:01:19;;;;;;;10.50;9.45;;;;;;;34.83;51.00;100578.81;5036705;28;69639;-35
2022/04/18 08:03:51;;;;;;;10.38;9.38;;;;;;;34.87;50.46;100576.41;5015158;28;65227;-35
2022/04/18 08:06:22;;;;;;;18.98;10.18;;;;;;;34.89;50.95;100576.97;5035104;28;68772;-35
2022/04/18 08:09:10;;;;;;;11.07;9.93;;;;;;;34.90;50.69;100575.91;5067303;28;67905;-35
2022/04/18 08:11:41;;;;;;;10.60;9.50;;;;;;;34.91;50.92;100569.38;5029701;28;70091;-35
2022/04/18 08:14:15;;;;;;;12.55;9.48;;;;;;;34.72;50.62;100524.47;5019369;28;66645;-34
2022/04/18 08:16:50;;;;;;;14.25;9.88;;;;;;;34.89;50.47;100549.72;5035947;28;69343;-34
2022/04/18 08:19:33;;;;;;;10.80;9.80;;;;;;;34.91;50.38;100550.31;5035399;28;65326;-35
2022/04/18 08:22:04;;;;;;;10.55;9.45;;;;;;;34.99;50.25;100557.19;5031363;28;69371;-34
2022/04/18 08:24:46;;;;;;;10.02;9.13;;;;;;;35.01;50.20;100561.31;5037471;28;65602;-33
2022/04/18 08:27:40;;;;;;;12.00;9.43;;;;;;;35.05;50.61;100551.53;5010169;28;70099;-34
2022/04/18 08:30:16;;;;;;;15.45;9.27;;;;;;;34.98;50.57;100534.56;5028953;28;65426;-35
2022/04/18 08:32:55;;;;;;;10.00;9.20;;;;;;;35.09;50.31;100549.97;5035765;28;69607;-35
2022/04/18 08:35:26;;;;;;;16.85;9.30;;;;;;;35.04;49.91;100533.53;5038370;28;66412;-36
2022/04/18 08:37:57;;;;;;;12.85;9.50;;;;;;;35.09;50.44;100533.63;5028003;28;69756;-35
2022/04/18 08:40:43;;;;;;;9.38;8.57;;;;;;;34.80;50.25;100483.97;5029089;28;65367;-35
2022/04/18 08:43:14;;;;;;;11.25;8.32;;;;;;;35.08;50.12;100534.72;5018242;28;69343;-35
2022/04/18 08:45:47;;;;;;;11.55;8.98;;;;;;;35.20;50.43;100539.19;5020218;28;66906;-34
2022/04/18 08:54:00;;;;;;;8.95;8.10;;;;;;;35.23;49.84;100531.28;5033177;28;70355;-34
2022/04/18 08:56:32;;;;;;;13.32;9.63;;;;;;;35.18;49.86;100520.34;5019997;28;66287;-35
2022/04/18 08:59:03;;;;;;;9.00;8.18;;;;;;;35.27;49.95;100526.13;5019213;28;70214;-34
2022/04/18 09:01:34;;;;;;;9.53;8.23;;;;;;;35.25;49.71;100522.88;5036388;28;67255;-35
2022/04/18 09:04:05;;;;;;;9.63;8.70;;;;;;;35.29;49.60;100534.88;5021590;28;70924;-34
2022/04/18 09:06:43;;;;;;;8.40;7.72;;;;;;;35.15;49.91;100512.69;5035479;28;66860;-34
2022/04/18 09:09:28;;;;;;;11.82;8.57;;;;;;;35.08;49.89;100504.72;5029722;28;70530;-35
2022/04/18 09:12:21;;;;;;;9.57;8.73;;;;;;;35.25;49.62;100550.94;5038649;28;66356;-34
2022/04/18 09:15:14;;;;;;;11.45;8.27;;;;;;;35.25;49.52;100542.78;5025450;28;70255;-35
2022/04/18 09:18:10;;;;;;;11.05;8.55;;;;;;;35.28;49.73;100546.88;5039313;28;66174;-35
2022/04/18 09:20:53;;;;;;;11.43;7.95;;;;;;;35.32;49.32;100559.72;5038774;28;69013;-35
2022/04/18 09:23:32;;;;;;;8.73;7.72;;;;;;;35.34;49.19;100567.66;5019395;28;66425;-35
2022/04/18 09:26:24;;;;;;;9.27;8.38;;;;;;;35.32;49.49;100567.91;5026175;28;69915;-35
2022/04/18 09:29:04;;;;;;;11.80;8.60;;;;;;;35.33;49.30;100576.94;5032629;28;65373;-35
2022/04/18 09:31:40;;;;;;;10.98;7.72;;;;;;;35.11;49.77;100545.09;5035182;28;69500;-34
2022/04/18 09:34:21;;;;;;;8.77;7.97;;;;;;;35.31;49.53;100565.47;5016277;28;66340;-34
2022/04/18 09:37:18;;;;;;;11.13;8.48;;;;;;;35.17;49.68;100586.84;5019787;28;69932;-34
2022/04/18 09:39:53;;;;;;;9.23;8.30;;;;;;;35.29;49.80;100587.50;5032552;28;66997;-35
2022/04/18 09:42:29;;;;;;;11.88;8.77;;;;;;;35.26;49.34;100579.03;5035833;28;69602;-35
2022/04/18 09:45:08;;;;;;;8.55;7.75;;;;;;;34.84;49.69;100517.78;5028210;28;66070;-34
2022/04/18 09:47:43;;;;;;;10.15;8.02;;;;;;;35.21;49.99;100576.25;5035705;28;69943;-35
2022/04/18 09:53:27;;;;;;;8.90;7.80;;;;;;;35.07;50.14;100584.84;5048636;28;69305;-34
2022/04/18 09:55:58;;;;;;;9.00;7.47;;;;;;;35.07;50.49;100586.75;5025874;28;66716;-35
2022/04/18 09:58:32;;;;;;;10.60;7.67;;;;;;;35.07;50.04;100592.19;5026459;28;70338;-35
2022/04/18 10:01:24;;;;;;;9.02;7.90;;;;;;;34.61;49.95;100518.91;5026672;28;66903;-35
2022/04/18 10:03:56;;;;;;;8.95;7.82;;;;;;;34.94;50.32;100566.16;5002881;28;43366;-36
2022/04/18 10:06:28;;;;;;;9.80;8.05;;;;;;;34.95;50.43;100572.41;5018194;28;65883;-35
2022/04/18 10:08:58;;;;;;;8.23;7.50;;;;;;;34.90;50.09;100571.25;5020974;28;70268;-35
2022/04/18 10:11:30;;;;;;;12.45;8.98;;;;;;;34.98;50.33;100591.78;5020046;28;65846;-35
2022/04/18 10:14:03;;;;;;;10.40;7.43;;;;;;;34.87;50.75;100581.84;5025307;28;69865;-33
2022/04/18 10:16:34;;;;;;;15.60;9.15;;;;;;;34.38;52.01;100581.75;5023560;28;66484;-36
2022/04/18 10:19:37;;;;;;;9.32;8.30;;;;;;;33.98;53.27;100593.66;5031787;28;68973;-35
2022/04/18 10:22:43;;;;;;;17.60;9.20;;;;;;;33.76;54.77;100609.91;5033929;28;66242;-36
2022/04/18 10:26:07;;;;;;;23.60;9.85;;;;;;;33.61;55.51;100610.47;5021902;28;69948;-35
2022/04/18 10:28:45;;;;;;;20.42;9.35;;;;;;;33.52;56.17;100612.78;5020504;28;66608;-34
2022/04/18 10:31:26;;;;;;;24.77;9.55;;;;;;;33.37;56.46;100602.41;5020251;28;69766;-35
2022/04/18 10:33:57;;;;;;;15.32;9.55;;;;;;;33.43;57.11;100621.53;5021959;28;65871;-36
2022/04/18 10:36:33;;;;;;;27.75;10.15;;;;;;;33.38;58.06;100631.25;5020990;28;69208;-35
2022/04/18 10:39:08;;;;;;;28.38;9.52;;;;;;;33.35;57.98;100631.75;5028553;28;65627;-35
2022/04/18 10:41:39;;;;;;;23.58;9.65;;;;;;;33.33;57.83;100623.00;5026097;28;69788;-35
2022/04/18 10:44:19;;;;;;;16.33;10.18;;;;;;;33.31;58.17;100629.75;5035107;28;66264;-36
2022/04/18 10:46:50;;;;;;;17.05;9.65;;;;;;;33.27;58.09;100626.69;5041382;28;70247;-35
2022/04/18 10:49:23;;;;;;;20.25;9.77;;;;;;;32.76;58.05;100552.28;5041152;28;65943;-36
2022/04/18 10:51:55;;;;;;;25.05;9.52;;;;;;;33.26;58.25;100643.22;5022921;28;69692;-37
2022/04/18 10:54:30;;;;;;;22.63;9.60;;;;;;;32.74;58.36;100570.72;5036133;28;66152;-36
2022/04/18 10:57:14;;;;;;;21.40;10.00;;;;;;;33.17;58.04;100650.94;5029893;28;69871;-37
2022/04/18 10:59:46;;;;;;;15.57;9.68;;;;;;;33.19;57.92;100659.69;5032934;28;65758;-37
2022/04/18 11:02:37;;;;;;;13.25;8.52;;;;;;;33.09;57.95;100659.47;5027180;28;69465;-38
2022/04/18 11:05:08;;;;;;;14.88;9.68;;;;;;;33.08;57.80;100647.78;5028891;28;65521;-38
2022/04/18 11:07:45;;;;;;;18.57;9.33;;;;;;;33.02;57.34;100645.22;5030991;28;70451;-38
2022/04/18 11:10:20;;;;;;;13.50;9.25;;;;;;;33.04;57.29;100645.78;5029262;28;65578;-36
2022/04/18 11:12:57;;;;;;;17.40;8.55;;;;;;;32.99;57.43;100651.94;5031635;28;69740;-37
2022/04/18 11:15:28;;;;;;;15.30;9.20;;;;;;;33.05;57.37;100658.31;5035754;28;66071;-36
2022/04/18 11:18:09;;;;;;;13.07;8.77;;;;;;;33.05;57.45;100663.75;5033393;28;70892;-37
2022/04/18 11:20:40;;;;;;;17.58;9.77;;;;;;;33.01;57.66;100662.56;5034245;28;64567;-36
2022/04/18 11:23:28;;;;;;;20.70;9.50;;;;;;;32.91;57.81;100650.41;5037415;28;69784;-36
2022/04/18 11:26:04;;;;;;;12.60;8.63;;;;;;;32.47;57.75;100573.16;5031367;28;65400;-36
2022/04/18 11:28:37;;;;;;;15.35;8.55;;;;;;;32.65;57.92;100615.59;5028559;28;70082;-36
2022/04/18 11:31:10;;;;;;;14.07;9.10;;;;;;;32.84;57.76;100652.41;5030995;28;66231;-37
2022/04/18 11:33:42;;;;;;;14.98;9.32;;;;;;;32.65;58.02;100631.91;5037130;28;69550;-36
2022/04/18 11:36:14;;;;;;;16.00;8.50;;;;;;;32.93;57.56;100678.16;5034569;28;65428;-36
2022/04/18 11:38:45;;;;;;;21.95;9.10;;;;;;;32.90;57.67;100672.38;5020766;28;69521;-37
2022/04/18 11:41:18;;;;;;;13.53;8.27;;;;;;;32.82;57.93;100670.88;5022627;28;65518;-37
2022/04/18 11:43:57;;;;;;;17.42;9.20;;;;;;;32.82;57.99;100683.59;5020171;28;69889;-36
2022/04/18 11:46:30;;;;;;;23.00;8.77;;;;;;;32.77;57.68;100659.88;5022423;28;65818;-37
2022/04/18 11:49:00;;;;;;;17.17;9.43;;;;;;;32.83;58.05;100675.22;5021676;28;70643;-36
2022/04/18 11:51:42;;;;;;;15.57;8.40;;;;;;;32.79;57.98;100665.06;5039679;28;66018;-37
2022/04/18 11:54:13;;;;;;;17.90;8.63;;;;;;;32.79;58.03;100676.78;5021177;28;70261;-37
2022/04/18 11:56:57;;;;;;;15.35;8.73;;;;;;;32.64;58.02;100662.84;5021008;28;66064;-37
2022/04/18 11:59:29;;;;;;;15.20;8.20;;;;;;;32.38;58.48;100610.66;5036833;28;69913;-38
2022/04/18 12:07:46;;;;;;;21.02;9.23;;;;;;;32.77;59.96;100673.47;5010741;28;66130;-35
2022/04/18 12:10:25;;;;;;;18.13;9.13;;;;;;;32.79;60.19;100679.50;5022121;28;70389;-35
2022/04/18 12:12:56;;;;;;;16.52;8.82;;;;;;;32.79;59.70;100678.66;5019033;28;66404;-35
2022/04/18 12:15:29;;;;;;;19.17;8.73;;;;;;;32.78;60.10;100677.81;5021929;28;69807;-36
2022/04/18 12:18:25;;;;;;;24.67;9.45;;;;;;;32.73;59.91;100680.41;5021099;28;66211;-35
2022/04/18 12:21:00;;;;;;;16.10;8.23;;;;;;;32.78;59.72;100679.72;5035753;28;69246;-35
2022/04/18 12:23:34;;;;;;;14.30;8.23;;;;;;;32.83;59.89;100687.97;5029062;28;66510;-35